createdAt,value
2023-05-14T00:02:11.971Z,101169.31
2023-05-14T00:07:14.253Z,101191.63
2023-05-14T00:12:16.441Z,101165.97
2023-05-14T00:17:19.550Z,101125.50
2023-05-14T00:22:21.839Z,101074.13
2023-05-14T00:27:24.733Z,101127.41
2023-05-14T00:32:27.109Z,101124.44
2023-05-14T00:37:29.388Z,101122.00
2023-05-14T00:42:31.689Z,101129.56
2023-05-14T00:47:35.320Z,101130.22
2023-05-14T00:52:39.027Z,101132.16
2023-05-14T00:57:41.319Z,101140.69
2023-05-14T01:02:43.640Z,101144.69
2023-05-14T01:08:01.112Z,101133.88
2023-05-14T01:13:28.529Z,101124.94
2023-05-14T01:18:33.398Z,101136.38
2023-05-14T01:23:35.681Z,101134.91
2023-05-14T01:28:39.012Z,101154.13
2023-05-14T01:33:43.841Z,101157.25
2023-05-14T01:38:48.527Z,101144.09
2023-05-14T01:43:50.937Z,101125.19
2023-05-14T01:48:53.175Z,101139.94
2023-05-14T01:53:55.454Z,101113.06
2023-05-14T01:58:57.605Z,101116.22
2023-05-14T02:04:01.509Z,101149.94
2023-05-14T02:09:05.408Z,101139.78
2023-05-14T02:14:07.559Z,101127.03
2023-05-14T02:19:10.206Z,101103.72
2023-05-14T02:24:12.650Z,101104.75
2023-05-14T02:29:14.867Z,101096.00
2023-05-14T02:34:17.157Z,101128.06
2023-05-14T02:39:19.436Z,101160.22
2023-05-14T02:44:21.765Z,101149.13
2023-05-14T02:49:23.990Z,101164.97
2023-05-14T02:54:26.179Z,101182.06
2023-05-14T02:59:28.601Z,101159.16
2023-05-14T03:04:31.266Z,101160.41
2023-05-14T03:09:34.243Z,101137.28
2023-05-14T03:14:37.567Z,101112.72
2023-05-14T03:19:40.049Z,101119.78
2023-05-14T03:24:42.288Z,101096.88
2023-05-14T03:29:44.591Z,101067.88
2023-05-14T03:34:46.796Z,101051.47
2023-05-14T03:39:49.000Z,101125.41
2023-05-14T03:44:51.235Z,101155.59
2023-05-14T03:49:53.539Z,101206.66
2023-05-14T03:54:55.858Z,101183.34
2023-05-14T03:59:58.149Z,101174.78
2023-05-14T04:05:00.438Z,101185.38
2023-05-14T04:10:04.689Z,101181.22
2023-05-14T04:15:07.841Z,101188.75
2023-05-14T04:20:10.616Z,101208.09
2023-05-14T04:25:12.914Z,101223.09
2023-05-14T04:30:15.328Z,101233.09
2023-05-14T04:35:17.518Z,101233.16
2023-05-14T04:40:19.889Z,101217.72
2023-05-14T04:45:22.213Z,101209.34
2023-05-14T04:50:24.737Z,101209.78
2023-05-14T04:55:27.260Z,101204.16
2023-05-14T05:00:30.122Z,101242.09
2023-05-14T05:05:32.430Z,101290.44
2023-05-14T05:10:34.749Z,101299.00
2023-05-14T05:15:37.073Z,101303.78
2023-05-14T05:20:39.326Z,101308.13
2023-05-14T05:25:41.754Z,101300.25
2023-05-14T05:30:45.933Z,101303.78
2023-05-14T05:35:49.391Z,101289.41
2023-05-14T05:40:51.585Z,101294.63
2023-05-14T05:45:53.753Z,101309.22
2023-05-14T05:50:56.081Z,101316.09
2023-05-14T05:55:58.363Z,101319.22
2023-05-14T06:01:00.678Z,101283.38
2023-05-14T06:06:03.411Z,101292.75
2023-05-14T06:11:05.762Z,101293.34
2023-05-14T06:16:08.073Z,101325.47
2023-05-14T06:21:10.381Z,101315.47
2023-05-14T06:26:12.560Z,101279.16
2023-05-14T06:31:14.800Z,101268.31
2023-05-14T06:36:17.013Z,101254.13
2023-05-14T06:41:19.252Z,101247.81
2023-05-14T06:46:21.995Z,101261.97
2023-05-14T06:51:24.175Z,101244.28
2023-05-14T06:56:26.538Z,101262.41
2023-05-14T07:01:28.915Z,101252.19
2023-05-14T07:06:31.287Z,101204.84
2023-05-14T07:11:33.977Z,101190.81
2023-05-14T07:16:36.593Z,101167.13
2023-05-14T07:21:38.947Z,101190.78
2023-05-14T07:26:41.213Z,101193.69
2023-05-14T07:31:43.913Z,101200.34
2023-05-14T07:36:47.298Z,101211.78
2023-05-14T07:41:50.581Z,101210.25
2023-05-14T07:46:52.759Z,101222.88
2023-05-14T07:51:55.043Z,101189.91
2023-05-14T07:56:57.343Z,101212.91
2023-05-14T08:01:59.615Z,101256.25
2023-05-14T08:07:01.991Z,101221.34
2023-05-14T08:12:04.811Z,101224.91
2023-05-14T08:17:07.056Z,101214.31
2023-05-14T08:22:09.388Z,101231.78
2023-05-14T08:27:11.566Z,101240.72
2023-05-14T08:32:22.706Z,101227.56
2023-05-14T08:37:26.004Z,101243.22
2023-05-14T08:42:29.685Z,101232.69
2023-05-14T08:47:32.389Z,101222.75
2023-05-14T08:52:35.635Z,101210.72
2023-05-14T08:57:38.030Z,101192.38
2023-05-14T09:02:41.316Z,101248.91
2023-05-14T09:07:43.825Z,101266.66
2023-05-14T09:12:46.193Z,101225.06
2023-05-14T09:17:49.071Z,101217.78
2023-05-14T09:22:55.082Z,101224.75
2023-05-14T09:27:58.777Z,101198.22
2023-05-14T09:33:01.993Z,101207.47
2023-05-14T09:38:04.325Z,101218.72
2023-05-14T09:43:06.819Z,101216.00
2023-05-14T09:48:09.657Z,101182.31
2023-05-14T09:53:12.248Z,101206.06
2023-05-14T09:58:17.255Z,101183.16
2023-05-14T10:03:20.879Z,101194.72
2023-05-14T10:08:27.656Z,101188.19
2023-05-14T10:13:42.074Z,101191.16
2023-05-14T10:18:48.874Z,101193.66
2023-05-14T10:23:52.066Z,101219.66
2023-05-14T10:28:54.681Z,101234.06
2023-05-14T10:33:58.024Z,101191.75
2023-05-14T10:39:04.787Z,101185.56
2023-05-14T10:44:10.584Z,101164.69
2023-05-14T10:49:12.804Z,101188.50
2023-05-14T10:54:17.378Z,101151.28
2023-05-14T10:59:20.080Z,101128.00
2023-05-14T11:04:25.464Z,101126.69
2023-05-14T11:09:28.412Z,101113.28
2023-05-14T11:14:30.786Z,101099.75
2023-05-14T11:19:33.076Z,101118.47
2023-05-14T11:24:35.386Z,101115.22
2023-05-14T11:29:38.842Z,101127.25
2023-05-14T11:34:42.178Z,101093.97
2023-05-14T11:39:53.256Z,101093.50
2023-05-14T11:44:55.580Z,101092.19
2023-05-14T11:49:57.992Z,101097.31
2023-05-14T11:55:00.344Z,101109.19
2023-05-14T12:00:02.675Z,101108.38
2023-05-14T12:05:07.738Z,101091.06
2023-05-14T12:10:13.420Z,101091.38
2023-05-14T12:15:19.584Z,101101.13
2023-05-14T12:20:22.089Z,101069.06
2023-05-14T12:25:26.484Z,101077.69
2023-05-14T12:30:28.852Z,101088.75
2023-05-14T12:35:31.182Z,101048.06
2023-05-14T12:40:33.675Z,101073.38
2023-05-14T12:45:35.965Z,101055.25
2023-05-14T12:50:38.185Z,101038.47
2023-05-14T12:55:40.337Z,101021.81
2023-05-14T13:00:42.657Z,101015.81
2023-05-14T13:05:45.034Z,101015.06
2023-05-14T13:10:47.562Z,100994.47
2023-05-14T13:15:50.051Z,101012.66
2023-05-14T13:20:52.415Z,100995.66
2023-05-14T13:25:54.610Z,100997.88
2023-05-14T13:31:14.708Z,100971.50
2023-05-14T13:36:16.940Z,100915.75
2023-05-14T13:41:19.369Z,100928.66
2023-05-14T13:46:21.717Z,100895.75
2023-05-14T13:51:24.178Z,100916.34
2023-05-14T13:56:26.657Z,100897.94
2023-05-14T14:01:31.072Z,100885.81
2023-05-14T14:06:33.692Z,100895.44
2023-05-14T14:11:36.226Z,100906.69
2023-05-14T14:16:38.633Z,100900.13
2023-05-14T14:21:43.181Z,100921.19
2023-05-14T14:26:45.420Z,100914.56
2023-05-14T14:31:47.720Z,100915.44
2023-05-14T14:36:49.978Z,100906.16
2023-05-14T14:41:52.280Z,100897.34
2023-05-14T14:46:54.499Z,100928.94
2023-05-14T14:51:56.802Z,100959.16
2023-05-14T14:56:59.069Z,100994.53
2023-05-14T15:02:01.308Z,100999.47
2023-05-14T15:07:03.616Z,101008.72
2023-05-14T15:12:06.674Z,101028.44
2023-05-14T15:17:08.956Z,101029.63
2023-05-14T15:22:11.405Z,101009.34
2023-05-14T15:27:13.625Z,100995.13
2023-05-14T15:32:17.513Z,100980.28
2023-05-14T15:37:19.696Z,100961.31
2023-05-14T15:42:21.988Z,100942.03
2023-05-14T15:47:24.364Z,100937.09
2023-05-14T15:52:26.998Z,100939.91
2023-05-14T15:57:29.234Z,100937.19
2023-05-14T16:02:33.620Z,100943.31
2023-05-14T16:07:36.469Z,100975.06
2023-05-14T16:12:38.750Z,100953.97
2023-05-14T16:17:41.272Z,100972.97
2023-05-14T16:22:43.453Z,100955.94
2023-05-14T16:27:45.689Z,100987.91
2023-05-14T16:32:49.803Z,100983.91
2023-05-14T16:37:51.917Z,100986.09
2023-05-14T16:42:54.032Z,100963.38
2023-05-14T16:47:56.234Z,100995.06
2023-05-14T16:52:58.428Z,100983.22
2023-05-14T16:58:00.552Z,101001.00
2023-05-14T17:03:03.677Z,101006.38
2023-05-14T17:08:06.251Z,101007.13
2023-05-14T17:13:08.461Z,100990.22
2023-05-14T17:18:12.286Z,100994.41
2023-05-14T17:23:14.437Z,101000.63
2023-05-14T17:28:16.649Z,100984.09
2023-05-14T17:33:18.929Z,100995.50
2023-05-14T17:38:21.117Z,100978.78
2023-05-14T17:43:23.317Z,100989.81
2023-05-14T17:48:25.604Z,100985.09
2023-05-14T17:53:27.811Z,100973.13
2023-05-14T17:58:30.146Z,100975.63
2023-05-14T18:03:32.508Z,100974.78
2023-05-14T18:08:34.751Z,100980.94
2023-05-14T18:13:37.083Z,100978.66
2023-05-14T18:18:39.338Z,100986.25
2023-05-14T18:23:41.518Z,100983.47
2023-05-14T18:28:43.748Z,100958.25
2023-05-14T18:33:45.901Z,100974.13
2023-05-14T18:38:48.099Z,100964.91
2023-05-14T18:43:50.369Z,100943.59
2023-05-14T18:48:52.525Z,100947.63
2023-05-14T18:53:55.055Z,100971.81
2023-05-14T18:58:57.232Z,100976.56
2023-05-14T19:03:59.476Z,100966.88
2023-05-14T19:09:02.087Z,100983.31
2023-05-14T19:14:04.328Z,100977.84
2023-05-14T19:19:06.596Z,100985.53
2023-05-14T19:24:09.063Z,100993.06
2023-05-14T19:29:11.474Z,100994.38
2023-05-14T19:34:14.397Z,101018.63
2023-05-14T19:39:16.753Z,101027.84
2023-05-14T19:44:18.993Z,100993.81
2023-05-14T19:49:21.187Z,101009.22
2023-05-14T19:54:23.290Z,101018.88
2023-05-14T19:59:25.683Z,101040.41
2023-05-14T20:04:28.483Z,101052.72
2023-05-14T20:09:30.743Z,101066.59
2023-05-14T20:14:32.848Z,101045.22
2023-05-14T20:19:35.299Z,101036.72
2023-05-14T20:24:37.414Z,101049.16
2023-05-14T20:29:39.492Z,101025.97
2023-05-14T20:34:41.650Z,100996.47
2023-05-14T20:39:44.044Z,100984.84
2023-05-14T20:44:48.557Z,100980.94
2023-05-14T20:49:51.578Z,100990.75
2023-05-14T20:54:53.839Z,100977.22
2023-05-14T20:59:56.014Z,100971.41
2023-05-14T21:04:58.285Z,100972.47
2023-05-14T21:10:00.521Z,100946.19
2023-05-14T21:15:03.074Z,100941.16
2023-05-14T21:20:05.676Z,100943.66
2023-05-14T21:25:08.226Z,100974.94
2023-05-14T21:30:10.999Z,100967.72
2023-05-14T21:35:13.212Z,100962.50
2023-05-14T21:40:15.567Z,100951.72
2023-05-14T21:45:17.714Z,100942.28
2023-05-14T21:50:20.143Z,100942.44
2023-05-14T21:55:22.797Z,100943.09
2023-05-14T22:00:25.543Z,100926.91
2023-05-14T22:05:27.955Z,100942.06
2023-05-14T22:10:31.631Z,100928.94
2023-05-14T22:15:33.841Z,100917.78
2023-05-14T22:20:36.472Z,100884.81
2023-05-14T22:25:38.649Z,100863.47
2023-05-14T22:30:40.892Z,100870.03
2023-05-14T22:35:43.000Z,100858.81
2023-05-14T22:40:45.082Z,100826.47
2023-05-14T22:45:47.209Z,100822.94
2023-05-14T22:50:49.308Z,100814.56
2023-05-14T22:55:51.586Z,100806.44
2023-05-14T23:00:53.714Z,100807.56
2023-05-14T23:05:56.042Z,100824.50
2023-05-14T23:10:58.105Z,100837.47
2023-05-14T23:16:01.286Z,100798.56
2023-05-14T23:21:03.603Z,100806.34
2023-05-14T23:26:05.895Z,100785.38
2023-05-14T23:31:08.021Z,100789.00
2023-05-14T23:36:10.879Z,100782.50
2023-05-14T23:41:13.058Z,100790.41
2023-05-14T23:46:15.810Z,100763.59
2023-05-14T23:51:19.019Z,100770.22
2023-05-14T23:56:21.190Z,100771.16
